createdAt,value
2022-12-11T00:00:18.668Z,21.02
2022-12-11T00:05:20.076Z,20.98
2022-12-11T00:10:21.472Z,20.84
2022-12-11T00:15:22.850Z,20.93
2022-12-11T00:20:24.659Z,20.94
2022-12-11T00:25:26.019Z,20.95
2022-12-11T00:30:27.383Z,20.86
2022-12-11T00:35:28.798Z,20.98
2022-12-11T00:40:30.165Z,20.97
2022-12-11T00:45:34.137Z,21.07
2022-12-11T00:50:35.588Z,20.90
2022-12-11T00:55:38.308Z,20.83
2022-12-11T01:00:39.808Z,20.99
2022-12-11T01:05:41.168Z,21.17
2022-12-11T01:10:42.568Z,21.02
2022-12-11T01:15:44.952Z,21.07
2022-12-11T01:20:46.346Z,20.74
2022-12-11T01:25:47.708Z,20.96
2022-12-11T01:30:49.095Z,20.92
2022-12-11T01:35:50.515Z,20.89
2022-12-11T01:40:52.211Z,20.77
2022-12-11T01:45:53.662Z,20.77
2022-12-11T01:51:04.809Z,20.84
2022-12-11T01:56:06.649Z,20.87
2022-12-11T02:01:08.026Z,20.98
2022-12-11T02:06:32.212Z,20.77
2022-12-11T02:11:43.404Z,20.46
2022-12-11T02:16:46.109Z,20.50
2022-12-11T02:21:51.262Z,20.40
2022-12-11T02:27:21.803Z,20.36
2022-12-11T02:32:29.712Z,20.38
2022-12-11T02:37:31.280Z,20.57
2022-12-11T02:42:32.647Z,20.41
2022-12-11T02:47:34.027Z,19.99
2022-12-11T02:52:35.412Z,20.15
2022-12-11T02:57:43.936Z,19.89
2022-12-11T03:02:45.354Z,19.83
2022-12-11T03:07:46.815Z,19.94
2022-12-11T03:12:53.564Z,19.87
2022-12-11T03:18:27.104Z,19.79
2022-12-11T03:23:32.223Z,19.76
2022-12-11T03:28:44.240Z,19.80
2022-12-11T03:33:46.144Z,19.64
2022-12-11T03:38:51.509Z,19.42
2022-12-11T03:43:53.760Z,19.68
2022-12-11T03:48:56.396Z,19.47
2022-12-11T03:53:57.820Z,19.74
2022-12-11T03:58:59.184Z,19.68
2022-12-11T04:04:00.586Z,19.82
2022-12-11T04:09:02.007Z,19.96
2022-12-11T04:14:29.444Z,19.79
2022-12-11T04:19:49.107Z,19.55
2022-12-11T04:24:50.640Z,19.28
2022-12-11T04:29:52.006Z,19.61
2022-12-11T04:34:53.388Z,19.35
2022-12-11T04:39:54.803Z,19.38
2022-12-11T04:44:56.167Z,19.64
2022-12-11T04:49:57.595Z,19.44
2022-12-11T04:54:58.996Z,19.54
2022-12-11T05:00:00.414Z,19.63
2022-12-11T05:05:03.193Z,19.72
2022-12-11T05:10:05.447Z,19.68
2022-12-11T05:15:07.226Z,19.51
2022-12-11T05:20:09.407Z,19.42
2022-12-11T05:25:11.084Z,19.68
2022-12-11T05:30:12.763Z,19.56
2022-12-11T05:35:14.129Z,19.86
2022-12-11T05:40:15.587Z,19.56
2022-12-11T05:45:16.951Z,19.65
2022-12-11T05:50:18.348Z,19.60
2022-12-11T05:55:19.728Z,19.47
2022-12-11T06:00:21.111Z,19.74
2022-12-11T06:05:22.476Z,19.56
2022-12-11T06:10:23.854Z,19.53
2022-12-11T06:15:25.218Z,19.30
2022-12-11T06:20:26.583Z,19.39
2022-12-11T06:25:28.525Z,19.33
2022-12-11T06:30:37.371Z,19.24
2022-12-11T06:35:42.292Z,19.14
2022-12-11T06:40:44.307Z,19.32
2022-12-11T06:45:45.736Z,19.22
2022-12-11T06:50:47.151Z,19.04
2022-12-11T06:55:48.551Z,19.21
2022-12-11T07:00:50.270Z,19.13
2022-12-11T07:05:51.650Z,19.01
2022-12-11T07:10:53.039Z,18.88
2022-12-11T07:15:54.424Z,18.91
2022-12-11T07:20:58.907Z,18.79
2022-12-11T07:26:04.517Z,18.66
2022-12-11T07:31:09.985Z,18.79
2022-12-11T07:36:12.260Z,18.59
2022-12-11T07:41:14.273Z,18.58
2022-12-11T07:46:17.052Z,18.72
2022-12-11T07:51:19.434Z,18.60
2022-12-11T07:56:20.853Z,18.44
2022-12-11T08:01:25.887Z,18.36
2022-12-11T08:06:29.149Z,18.28
2022-12-11T08:11:30.527Z,18.21
2022-12-11T08:16:32.260Z,18.12
2022-12-11T08:21:33.668Z,18.08
2022-12-11T08:26:35.059Z,18.09
2022-12-11T08:31:36.431Z,18.19
2022-12-11T08:36:37.807Z,17.95
2022-12-11T08:41:39.204Z,18.06
2022-12-11T08:46:40.600Z,17.99
2022-12-11T08:51:41.963Z,18.07
2022-12-11T08:56:43.356Z,18.08
2022-12-11T09:01:44.752Z,18.00
2022-12-11T09:06:46.136Z,18.10
2022-12-11T09:11:47.522Z,18.06
2022-12-11T09:16:48.888Z,18.01
2022-12-11T09:21:50.252Z,18.06
2022-12-11T09:26:51.625Z,18.09
2022-12-11T09:31:53.030Z,18.06
2022-12-11T09:36:54.579Z,17.90
2022-12-11T09:41:59.692Z,18.00
2022-12-11T09:47:01.081Z,18.16
2022-12-11T09:52:05.727Z,18.11
2022-12-11T09:57:44.574Z,17.92
2022-12-11T10:02:57.974Z,17.90
2022-12-11T10:08:19.071Z,17.63
2022-12-11T10:13:45.807Z,17.48
2022-12-11T10:18:47.648Z,17.88
2022-12-11T10:24:01.984Z,17.58
2022-12-11T10:29:05.674Z,17.83
2022-12-11T10:34:15.131Z,17.78
2022-12-11T10:39:18.575Z,17.91
2022-12-11T10:44:21.727Z,18.00
2022-12-11T10:49:28.593Z,18.00
2022-12-11T10:54:38.402Z,18.08
2022-12-11T10:59:42.603Z,17.91
2022-12-11T11:04:44.715Z,17.88
2022-12-11T11:09:46.159Z,17.87
2022-12-11T11:14:47.521Z,17.67
2022-12-11T11:19:48.950Z,18.00
2022-12-11T11:24:57.154Z,17.51
2022-12-11T11:30:01.598Z,17.68
2022-12-11T11:35:23.450Z,17.35
2022-12-11T11:40:34.136Z,17.22
2022-12-11T11:45:40.792Z,17.15
2022-12-11T11:50:45.396Z,17.39
2022-12-11T11:55:53.458Z,17.43
2022-12-11T12:00:55.011Z,17.31
2022-12-11T12:06:06.179Z,17.30
2022-12-11T12:11:30.690Z,17.25
2022-12-11T12:16:54.277Z,17.35
2022-12-11T12:21:55.823Z,17.34
2022-12-11T12:27:50.383Z,17.43
2022-12-11T12:32:51.635Z,17.36
2022-12-11T12:37:56.715Z,17.31
2022-12-11T12:43:16.692Z,17.54
2022-12-11T12:48:18.576Z,17.51
2022-12-11T12:53:21.696Z,17.42
2022-12-11T12:58:28.185Z,17.49
2022-12-11T13:03:31.801Z,17.53
2022-12-11T13:08:49.464Z,17.35
2022-12-11T13:14:07.987Z,17.36
2022-12-11T13:19:27.448Z,17.22
2022-12-11T13:24:30.364Z,17.31
2022-12-11T13:29:32.387Z,17.54
2022-12-11T13:34:34.953Z,17.31
2022-12-11T13:39:37.943Z,17.57
2022-12-11T13:44:40.403Z,17.62
2022-12-11T13:49:42.903Z,17.56
2022-12-11T13:54:48.715Z,17.65
2022-12-11T13:59:50.979Z,17.51
2022-12-11T14:04:56.603Z,17.63
2022-12-11T14:10:03.472Z,17.63
2022-12-11T14:15:05.377Z,17.64
2022-12-11T14:20:07.540Z,17.52
2022-12-11T14:25:24.778Z,17.70
2022-12-11T14:30:28.078Z,17.90
2022-12-11T14:35:37.068Z,17.95
2022-12-11T14:40:41.580Z,17.85
2022-12-11T14:45:44.576Z,18.07
2022-12-11T14:50:48.231Z,18.06
2022-12-11T14:55:50.107Z,18.20
2022-12-11T15:01:05.788Z,18.34
2022-12-11T15:06:33.478Z,18.39
2022-12-11T15:11:34.840Z,18.29
2022-12-11T15:16:37.670Z,18.26
2022-12-11T15:21:39.128Z,17.95
2022-12-11T15:26:46.986Z,17.94
2022-12-11T15:31:48.408Z,18.01
2022-12-11T15:36:49.876Z,18.11
2022-12-11T15:41:51.243Z,18.12
2022-12-11T15:46:52.643Z,18.28
2022-12-11T15:51:54.565Z,18.01
2022-12-11T15:56:56.091Z,17.91
2022-12-11T16:01:57.511Z,18.16
2022-12-11T16:06:58.899Z,17.78
2022-12-11T16:12:00.287Z,17.74
2022-12-11T16:17:01.666Z,17.84
2022-12-11T16:22:03.361Z,17.85
2022-12-11T16:27:05.016Z,17.80
2022-12-11T16:32:08.158Z,17.84
2022-12-11T16:37:09.578Z,18.06
2022-12-11T16:42:10.945Z,17.86
2022-12-11T16:47:12.369Z,17.93
2022-12-11T16:52:17.636Z,18.01
2022-12-11T16:57:23.264Z,17.97
2022-12-11T17:02:24.692Z,17.90
2022-12-11T17:07:26.104Z,17.95
2022-12-11T17:12:27.885Z,17.76
2022-12-11T17:17:29.266Z,18.04
2022-12-11T17:22:30.665Z,17.92
2022-12-11T17:27:32.069Z,18.02
2022-12-11T17:32:33.446Z,17.99
2022-12-11T17:37:34.839Z,17.80
2022-12-11T17:42:36.220Z,18.11
2022-12-11T17:47:37.627Z,18.06
2022-12-11T17:52:44.010Z,17.99
2022-12-11T17:57:45.763Z,17.94
2022-12-11T18:02:47.124Z,17.95
2022-12-11T18:07:51.613Z,17.87
2022-12-11T18:12:57.663Z,17.94
2022-12-11T18:17:59.144Z,17.86
2022-12-11T18:23:00.689Z,18.09
2022-12-11T18:28:02.065Z,17.82
2022-12-11T18:33:03.503Z,17.93
2022-12-11T18:38:04.881Z,18.04
2022-12-11T18:43:06.235Z,17.89
2022-12-11T18:48:10.187Z,17.87
2022-12-11T18:53:11.819Z,17.69
2022-12-11T18:58:13.755Z,17.75
2022-12-11T19:03:15.156Z,17.76
2022-12-11T19:08:16.624Z,17.74
2022-12-11T19:13:18.051Z,17.76
2022-12-11T19:18:19.420Z,17.89
2022-12-11T19:23:20.828Z,17.79
2022-12-11T19:28:22.192Z,17.90
2022-12-11T19:33:23.552Z,17.62
2022-12-11T19:38:24.935Z,17.96
2022-12-11T19:43:26.315Z,18.00
2022-12-11T19:48:28.045Z,17.95
2022-12-11T19:53:30.084Z,17.96
2022-12-11T19:58:31.563Z,18.24
2022-12-11T20:03:33.420Z,18.17
2022-12-11T20:08:44.933Z,18.00
2022-12-11T20:13:47.717Z,18.17
2022-12-11T20:18:49.079Z,18.17
2022-12-11T20:23:51.162Z,17.95
2022-12-11T20:28:52.545Z,18.20
2022-12-11T20:33:55.572Z,18.09
2022-12-11T20:38:56.967Z,18.09
2022-12-11T20:43:59.178Z,18.17
2022-12-11T20:49:00.723Z,18.25
2022-12-11T20:54:02.123Z,18.18
2022-12-11T20:59:03.526Z,18.07
2022-12-11T21:04:04.902Z,18.06
2022-12-11T21:09:08.627Z,17.89
2022-12-11T21:14:10.059Z,18.21
2022-12-11T21:19:16.509Z,17.96
2022-12-11T21:24:19.327Z,18.00
2022-12-11T21:29:20.935Z,18.13
2022-12-11T21:34:25.532Z,18.02
2022-12-11T21:39:28.401Z,18.10
2022-12-11T21:49:51.293Z,17.98
2022-12-11T21:54:52.689Z,18.28
2022-12-11T21:59:54.051Z,18.33
2022-12-11T22:04:55.419Z,18.04
2022-12-11T22:09:57.855Z,18.10
2022-12-11T22:14:59.261Z,18.13
2022-12-11T22:20:00.659Z,18.02
2022-12-11T22:25:03.468Z,18.13
2022-12-11T22:30:05.271Z,18.14
2022-12-11T22:35:07.044Z,18.10
2022-12-11T22:40:08.612Z,18.16
2022-12-11T22:45:10.792Z,18.08
2022-12-11T22:50:12.703Z,18.08
2022-12-11T22:55:15.117Z,18.00
2022-12-11T23:00:16.867Z,18.13
2022-12-11T23:05:18.243Z,18.25
2022-12-11T23:10:19.650Z,18.40
2022-12-11T23:15:21.122Z,18.42
2022-12-11T23:20:22.527Z,18.15
2022-12-11T23:25:23.916Z,18.26
2022-12-11T23:30:25.272Z,18.32
2022-12-11T23:35:26.635Z,18.42
2022-12-11T23:40:27.996Z,18.41
2022-12-11T23:45:29.609Z,18.49
2022-12-11T23:50:32.761Z,18.50
2022-12-11T23:55:34.179Z,18.58
